createdAt,value
2019-03-09T00:01:46.326Z,5.13
2019-03-09T00:04:13.962Z,5.57
2019-03-09T00:06:41.545Z,5.10
2019-03-09T00:09:09.293Z,4.63
2019-03-09T00:11:36.924Z,4.60
2019-03-09T00:14:04.748Z,4.70
2019-03-09T00:16:32.613Z,4.33
2019-03-09T00:19:00.201Z,4.17
2019-03-09T00:21:27.864Z,4.00
2019-03-09T00:24:23.941Z,4.43
2019-03-09T00:27:04.780Z,4.90
2019-03-09T00:29:51.853Z,4.13
2019-03-09T00:32:22.215Z,4.13
2019-03-09T00:34:49.843Z,3.77
2019-03-09T00:37:17.578Z,3.80
2019-03-09T00:39:45.132Z,3.30
2019-03-09T00:42:12.837Z,3.60
2019-03-09T00:44:40.437Z,3.03
2019-03-09T00:47:08.411Z,3.27
2019-03-09T00:49:36.024Z,3.87
2019-03-09T00:52:03.788Z,3.10
2019-03-09T00:54:31.373Z,3.57
2019-03-09T00:57:00.496Z,2.83
2019-03-09T00:59:28.080Z,3.80
2019-03-09T01:01:55.745Z,2.93
2019-03-09T01:04:23.397Z,3.37
2019-03-09T01:06:51.035Z,3.60
2019-03-09T01:09:18.638Z,3.70
2019-03-09T01:11:46.280Z,2.83
2019-03-09T01:14:13.858Z,3.93
2019-03-09T01:16:41.443Z,3.37
2019-03-09T01:19:09.098Z,4.00
2019-03-09T01:21:36.806Z,3.70
2019-03-09T01:24:04.446Z,3.73
2019-03-09T01:26:32.023Z,3.40
2019-03-09T01:28:59.664Z,3.17
2019-03-09T01:31:27.344Z,3.40
2019-03-09T01:33:55.061Z,3.53
2019-03-09T01:36:22.789Z,3.47
2019-03-09T01:38:50.541Z,3.23
2019-03-09T01:41:18.180Z,3.70
2019-03-09T01:43:45.773Z,4.10
2019-03-09T01:46:13.427Z,3.70
2019-03-09T01:48:41.072Z,3.80
2019-03-09T01:51:08.761Z,3.90
2019-03-09T01:53:37.097Z,3.50
2019-03-09T01:56:04.779Z,3.50
2019-03-09T01:58:32.416Z,3.27
2019-03-09T02:01:00.057Z,3.03
2019-03-09T02:03:27.726Z,3.63
2019-03-09T02:05:55.288Z,3.13
2019-03-09T02:08:22.997Z,3.47
2019-03-09T02:10:50.576Z,3.00
2019-03-09T02:13:18.194Z,4.00
2019-03-09T02:15:45.865Z,2.90
2019-03-09T02:18:13.465Z,3.20
2019-03-09T02:20:41.116Z,3.10
2019-03-09T02:23:08.736Z,3.27
2019-03-09T02:25:36.441Z,3.03
2019-03-09T02:28:04.123Z,2.87
2019-03-09T02:30:31.769Z,3.20
2019-03-09T02:32:59.354Z,2.53
2019-03-09T02:35:27.050Z,2.60
2019-03-09T02:37:55.670Z,3.10
2019-03-09T02:40:24.696Z,3.00
2019-03-09T02:42:52.266Z,3.20
2019-03-09T02:45:20.498Z,3.27
2019-03-09T02:47:48.239Z,3.47
2019-03-09T02:50:15.933Z,3.30
2019-03-09T02:52:43.652Z,3.27
2019-03-09T02:55:11.284Z,3.80
2019-03-09T02:57:38.922Z,3.13
2019-03-09T03:00:08.116Z,4.00
2019-03-09T03:02:41.662Z,2.87
2019-03-09T03:05:09.445Z,3.83
2019-03-09T03:07:37.129Z,3.43
2019-03-09T03:10:05.778Z,3.17
2019-03-09T03:12:33.381Z,3.43
2019-03-09T03:15:01.002Z,3.10
2019-03-09T03:17:28.657Z,3.20
2019-03-09T03:19:56.261Z,3.50
2019-03-09T03:22:23.885Z,3.07
2019-03-09T03:24:51.524Z,3.63
2019-03-09T03:27:19.161Z,2.93
2019-03-09T03:29:46.805Z,2.80
2019-03-09T03:32:14.517Z,2.47
2019-03-09T03:34:42.157Z,2.87
2019-03-09T03:37:09.718Z,2.57
2019-03-09T03:39:37.383Z,2.60
2019-03-09T03:42:05.053Z,2.60
2019-03-09T03:44:43.758Z,2.10
2019-03-09T03:47:12.291Z,2.50
2019-03-09T03:49:39.940Z,2.40
2019-03-09T03:52:07.542Z,2.53
2019-03-09T03:54:35.254Z,2.50
2019-03-09T03:57:02.882Z,2.60
2019-03-09T03:59:30.497Z,2.57
2019-03-09T04:01:58.111Z,2.87
2019-03-09T04:04:25.746Z,2.70
2019-03-09T04:06:53.516Z,2.50
2019-03-09T04:09:21.124Z,3.20
2019-03-09T04:11:48.830Z,2.97
2019-03-09T04:14:16.512Z,2.80
2019-03-09T04:16:44.125Z,2.50
2019-03-09T04:19:11.758Z,3.03
2019-03-09T04:21:39.530Z,2.80
2019-03-09T04:24:07.145Z,2.80
2019-03-09T04:26:34.748Z,3.50
2019-03-09T04:29:02.419Z,3.27
2019-03-09T04:31:30.072Z,3.30
2019-03-09T04:33:57.688Z,3.50
2019-03-09T04:36:25.331Z,3.10
2019-03-09T04:38:53.018Z,3.63
2019-03-09T04:41:20.707Z,3.33
2019-03-09T04:43:48.365Z,3.70
2019-03-09T04:46:15.942Z,3.93
2019-03-09T04:48:43.595Z,4.10
2019-03-09T04:51:11.251Z,3.80
2019-03-09T04:53:38.905Z,4.20
2019-03-09T04:56:06.517Z,3.93
2019-03-09T04:58:34.113Z,3.97
2019-03-09T05:01:01.732Z,4.90
2019-03-09T05:03:29.324Z,4.50
2019-03-09T05:05:56.957Z,4.53
2019-03-09T05:09:18.432Z,4.97
2019-03-09T05:11:46.090Z,5.23
2019-03-09T05:14:20.305Z,5.33
2019-03-09T05:16:47.939Z,5.63
2019-03-09T05:19:15.588Z,6.27
2019-03-09T05:21:43.198Z,6.37
2019-03-09T05:24:10.864Z,6.83
2019-03-09T05:26:38.457Z,6.63
2019-03-09T05:29:06.082Z,5.83
2019-03-09T05:31:33.699Z,5.47
2019-03-09T05:34:01.313Z,4.70
2019-03-09T05:36:28.976Z,4.17
2019-03-09T05:38:56.570Z,3.93
2019-03-09T05:41:24.232Z,3.87
2019-03-09T05:43:51.811Z,3.87
2019-03-09T05:46:19.468Z,3.40
2019-03-09T05:48:47.065Z,3.20
2019-03-09T05:51:14.764Z,3.77
2019-03-09T05:53:42.365Z,4.03
2019-03-09T05:56:09.939Z,3.80
2019-03-09T05:58:37.586Z,3.53
2019-03-09T06:01:05.199Z,3.97
2019-03-09T06:03:32.852Z,3.40
2019-03-09T06:06:12.253Z,3.60
2019-03-09T06:08:39.975Z,3.80
2019-03-09T06:11:07.639Z,3.40
2019-03-09T06:13:35.289Z,4.20
2019-03-09T06:16:02.892Z,3.20
2019-03-09T06:18:30.557Z,3.17
2019-03-09T06:20:58.137Z,2.70
2019-03-09T06:23:25.777Z,3.20
2019-03-09T06:25:53.405Z,3.30
2019-03-09T06:28:21.068Z,3.43
2019-03-09T06:30:48.689Z,2.43
2019-03-09T06:33:35.460Z,3.30
2019-03-09T06:36:42.762Z,2.93
2019-03-09T06:39:15.961Z,3.17
2019-03-09T06:41:47.565Z,3.27
2019-03-09T06:44:15.216Z,2.80
2019-03-09T06:46:42.856Z,3.07
2019-03-09T06:49:10.491Z,3.17
2019-03-09T06:51:38.120Z,2.90
2019-03-09T06:54:05.754Z,3.20
2019-03-09T06:56:33.415Z,3.13
2019-03-09T06:59:01.038Z,3.23
2019-03-09T07:01:28.694Z,3.40
2019-03-09T07:03:56.327Z,3.60
2019-03-09T07:06:23.985Z,3.60
2019-03-09T07:08:51.565Z,3.07
2019-03-09T07:11:19.227Z,3.30
2019-03-09T07:13:52.898Z,3.37
2019-03-09T07:16:16.258Z,3.00
2019-03-09T07:18:43.920Z,2.80
2019-03-09T07:21:11.549Z,3.50
2019-03-09T07:23:39.133Z,2.80
2019-03-09T07:26:06.730Z,3.43
2019-03-09T07:28:34.437Z,3.67
2019-03-09T07:31:02.145Z,3.10
2019-03-09T07:33:29.776Z,3.20
2019-03-09T07:35:57.417Z,3.80
2019-03-09T07:38:25.040Z,2.97
2019-03-09T07:40:52.688Z,3.30
2019-03-09T07:43:20.471Z,3.67
2019-03-09T07:45:48.088Z,2.90
2019-03-09T07:48:15.742Z,3.10
2019-03-09T07:50:43.483Z,3.30
2019-03-09T07:53:11.145Z,3.47
2019-03-09T07:55:38.827Z,3.93
2019-03-09T07:58:06.447Z,3.33
2019-03-09T08:00:34.080Z,3.87
2019-03-09T08:03:01.752Z,3.60
2019-03-09T08:05:29.338Z,3.33
2019-03-09T08:07:57.074Z,3.70
2019-03-09T08:10:24.707Z,3.53
2019-03-09T08:12:52.288Z,3.20
2019-03-09T08:15:19.962Z,3.60
2019-03-09T08:17:47.619Z,3.00
2019-03-09T08:20:15.346Z,3.23
2019-03-09T08:22:43.025Z,3.80
2019-03-09T08:25:11.424Z,3.17
2019-03-09T08:27:39.049Z,3.73
2019-03-09T08:30:09.959Z,3.20
2019-03-09T08:32:37.583Z,2.77
2019-03-09T08:35:05.527Z,2.87
2019-03-09T08:37:33.189Z,2.60
2019-03-09T08:40:00.971Z,2.57
2019-03-09T08:42:28.570Z,2.50
2019-03-09T08:44:56.135Z,2.70
2019-03-09T08:47:23.840Z,2.60
2019-03-09T08:49:51.453Z,3.50
2019-03-09T08:52:19.076Z,2.83
2019-03-09T08:54:46.738Z,2.63
2019-03-09T08:57:14.402Z,2.77
2019-03-09T08:59:41.992Z,2.80
2019-03-09T09:02:09.667Z,2.80
2019-03-09T09:04:37.286Z,2.60
2019-03-09T09:07:04.877Z,2.47
2019-03-09T09:09:32.550Z,2.90
2019-03-09T09:12:00.205Z,2.90
2019-03-09T09:14:27.807Z,3.10
2019-03-09T09:16:55.461Z,2.77
2019-03-09T09:19:23.114Z,2.70
2019-03-09T09:21:50.761Z,2.47
2019-03-09T09:24:18.356Z,3.33
2019-03-09T09:26:46.036Z,2.53
2019-03-09T09:29:13.661Z,3.07
2019-03-09T09:31:41.345Z,2.63
2019-03-09T09:34:08.974Z,2.50
2019-03-09T09:36:36.685Z,3.00
2019-03-09T09:39:06.154Z,3.20
2019-03-09T09:41:33.764Z,2.50
2019-03-09T09:44:01.420Z,2.73
2019-03-09T09:46:29.185Z,3.27
2019-03-09T09:48:56.883Z,2.80
2019-03-09T09:51:24.566Z,2.83
2019-03-09T09:53:52.237Z,2.67
2019-03-09T09:56:19.795Z,2.77
2019-03-09T09:58:47.468Z,3.40
2019-03-09T10:01:15.093Z,3.07
2019-03-09T10:03:42.721Z,2.77
2019-03-09T10:06:10.366Z,3.07
2019-03-09T10:08:38.056Z,3.10
2019-03-09T10:11:05.721Z,3.37
2019-03-09T10:13:33.311Z,2.83
2019-03-09T10:16:00.947Z,3.27
2019-03-09T10:18:28.654Z,3.10
2019-03-09T10:20:56.244Z,3.10
2019-03-09T10:23:23.905Z,3.47
2019-03-09T10:25:51.526Z,3.50
2019-03-09T10:28:19.194Z,3.57
2019-03-09T10:30:46.840Z,3.03
2019-03-09T10:33:14.422Z,3.87
2019-03-09T10:35:42.156Z,3.80
2019-03-09T10:38:09.772Z,3.70
2019-03-09T10:40:37.449Z,3.57
2019-03-09T10:43:05.044Z,3.37
2019-03-09T10:45:32.749Z,3.23
2019-03-09T10:48:00.343Z,4.10
2019-03-09T10:50:27.945Z,3.47
2019-03-09T10:52:55.580Z,3.60
2019-03-09T10:55:23.239Z,3.10
2019-03-09T10:57:50.867Z,3.70
2019-03-09T11:00:23.540Z,3.60
2019-03-09T11:02:51.188Z,3.20
2019-03-09T11:05:18.794Z,3.53
2019-03-09T11:07:46.564Z,3.70
2019-03-09T11:10:14.184Z,3.63
2019-03-09T11:12:42.259Z,2.97
2019-03-09T11:15:10.022Z,3.23
2019-03-09T11:17:37.628Z,3.17
2019-03-09T11:20:05.718Z,3.70
2019-03-09T11:22:33.353Z,3.57
2019-03-09T11:25:03.616Z,2.93
2019-03-09T11:27:30.465Z,3.70
2019-03-09T11:29:58.109Z,3.33
2019-03-09T11:32:25.782Z,3.70
2019-03-09T11:34:53.425Z,3.50
2019-03-09T11:37:21.049Z,3.80
2019-03-09T11:39:48.713Z,4.07
2019-03-09T11:42:16.335Z,3.60
2019-03-09T11:44:43.970Z,4.40
2019-03-09T11:47:11.594Z,3.17
2019-03-09T11:49:39.233Z,3.80
2019-03-09T11:52:06.861Z,3.50
2019-03-09T11:54:34.529Z,4.17
2019-03-09T11:57:02.160Z,4.03
2019-03-09T11:59:29.806Z,4.33
2019-03-09T12:01:57.469Z,4.00
2019-03-09T12:04:25.123Z,4.83
2019-03-09T12:06:52.787Z,4.03
2019-03-09T12:09:20.440Z,4.83
2019-03-09T12:11:59.285Z,5.00
2019-03-09T12:14:27.081Z,4.90
2019-03-09T12:16:54.690Z,4.97
2019-03-09T12:19:22.403Z,5.17
2019-03-09T12:21:50.050Z,5.17
2019-03-09T12:24:19.847Z,4.83
2019-03-09T12:26:47.119Z,4.83
2019-03-09T12:29:14.759Z,4.77
2019-03-09T12:31:42.403Z,5.10
2019-03-09T12:34:10.064Z,5.33
2019-03-09T12:36:37.746Z,4.20
2019-03-09T12:39:07.439Z,4.27
2019-03-09T12:41:35.109Z,4.23
2019-03-09T12:44:02.705Z,4.00
2019-03-09T12:46:30.424Z,4.17
2019-03-09T12:48:58.061Z,3.77
2019-03-09T12:51:25.661Z,4.07
2019-03-09T12:53:53.253Z,4.53
2019-03-09T12:56:20.887Z,7.17
2019-03-09T12:58:48.571Z,4.17
2019-03-09T13:01:16.185Z,3.97
2019-03-09T13:03:43.825Z,4.43
2019-03-09T13:06:11.510Z,3.33
2019-03-09T13:08:39.181Z,5.20
2019-03-09T13:11:06.798Z,5.30
2019-03-09T13:13:34.453Z,5.20
2019-03-09T13:16:02.088Z,5.43
2019-03-09T13:18:29.747Z,5.47
2019-03-09T13:20:57.355Z,4.77
2019-03-09T13:23:25.013Z,5.63
2019-03-09T13:25:52.707Z,5.87
2019-03-09T13:28:20.400Z,5.90
2019-03-09T13:30:47.977Z,5.53
2019-03-09T13:33:15.647Z,6.47
2019-03-09T13:35:43.373Z,5.63
2019-03-09T13:38:11.044Z,5.07
2019-03-09T13:40:38.709Z,4.80
2019-03-09T13:43:06.489Z,4.63
2019-03-09T13:45:34.180Z,5.27
2019-03-09T13:48:01.896Z,4.73
2019-03-09T13:50:29.529Z,4.23
2019-03-09T13:52:57.184Z,4.17
2019-03-09T13:55:24.840Z,5.20
2019-03-09T13:57:52.532Z,4.13
2019-03-09T14:00:20.161Z,4.10
2019-03-09T14:02:47.838Z,3.93
2019-03-09T14:05:15.468Z,3.23
2019-03-09T14:07:43.073Z,3.30
2019-03-09T14:10:11.383Z,2.87
2019-03-09T14:12:39.028Z,3.60
2019-03-09T14:15:08.298Z,3.33
2019-03-09T14:17:36.000Z,3.90
2019-03-09T14:20:03.978Z,2.87
2019-03-09T14:22:31.603Z,3.30
2019-03-09T14:24:59.212Z,3.20
2019-03-09T14:27:26.890Z,3.60
2019-03-09T14:29:54.535Z,3.70
2019-03-09T14:32:22.186Z,3.07
2019-03-09T14:34:49.770Z,4.03
2019-03-09T14:37:17.465Z,4.80
2019-03-09T14:39:45.084Z,4.70
2019-03-09T14:42:12.718Z,5.30
2019-03-09T14:44:40.381Z,6.10
2019-03-09T14:47:08.004Z,5.30
2019-03-09T14:49:35.697Z,4.63
2019-03-09T14:52:03.294Z,4.87
2019-03-09T14:54:30.911Z,5.63
2019-03-09T14:56:58.566Z,5.50
2019-03-09T14:59:26.167Z,3.90
2019-03-09T15:01:53.773Z,2.83
2019-03-09T15:04:21.440Z,2.77
2019-03-09T15:06:49.054Z,3.33
2019-03-09T15:09:16.650Z,3.83
2019-03-09T15:11:44.332Z,3.83
2019-03-09T15:14:11.976Z,3.10
2019-03-09T15:16:39.610Z,3.33
2019-03-09T15:19:07.254Z,2.50
2019-03-09T15:21:34.885Z,3.70
2019-03-09T15:24:02.554Z,3.57
2019-03-09T15:26:30.163Z,3.33
2019-03-09T15:28:57.842Z,3.50
2019-03-09T15:31:25.469Z,3.37
2019-03-09T15:33:53.096Z,3.17
2019-03-09T15:36:20.716Z,3.40
2019-03-09T15:38:48.348Z,2.87
2019-03-09T15:41:15.935Z,2.73
2019-03-09T15:43:43.536Z,3.17
2019-03-09T15:46:11.140Z,3.37
2019-03-09T15:48:38.808Z,3.07
2019-03-09T15:51:06.408Z,2.60
2019-03-09T15:53:34.047Z,2.70
2019-03-09T15:56:01.679Z,2.93
2019-03-09T15:58:29.288Z,3.57
2019-03-09T16:00:56.896Z,3.33
2019-03-09T16:03:24.539Z,3.90
2019-03-09T16:05:52.252Z,3.20
2019-03-09T16:08:19.865Z,2.80
2019-03-09T16:10:47.513Z,3.00
2019-03-09T16:13:15.127Z,3.00
2019-03-09T16:15:42.718Z,2.93
2019-03-09T16:18:10.309Z,2.40
2019-03-09T16:20:37.955Z,2.80
2019-03-09T16:23:05.696Z,3.30
2019-03-09T16:25:33.315Z,2.60
2019-03-09T16:28:00.931Z,2.07
2019-03-09T16:30:28.659Z,1.43
2019-03-09T16:32:56.328Z,2.00
2019-03-09T16:35:25.966Z,1.37
2019-03-09T16:37:53.401Z,1.50
2019-03-09T16:40:21.270Z,1.77
2019-03-09T16:42:49.004Z,2.10
2019-03-09T16:45:16.798Z,2.23
2019-03-09T16:47:44.490Z,1.17
2019-03-09T16:50:12.557Z,1.57
2019-03-09T16:52:40.146Z,1.50
2019-03-09T16:55:07.877Z,1.40
2019-03-09T16:57:35.509Z,1.20
2019-03-09T17:00:03.553Z,1.17
2019-03-09T17:02:31.222Z,1.37
2019-03-09T17:04:59.521Z,1.40
2019-03-09T17:07:27.228Z,1.73
2019-03-09T17:09:54.821Z,1.53
2019-03-09T17:12:22.491Z,0.90
2019-03-09T17:14:50.085Z,1.10
2019-03-09T17:17:17.716Z,1.47
2019-03-09T17:19:45.373Z,1.13
2019-03-09T17:22:12.986Z,1.37
2019-03-09T17:24:40.680Z,1.20
2019-03-09T17:27:08.315Z,1.33
2019-03-09T17:29:35.912Z,1.27
2019-03-09T17:32:03.539Z,1.30
2019-03-09T17:34:31.171Z,1.20
2019-03-09T17:36:58.826Z,1.73
2019-03-09T17:39:26.476Z,1.30
2019-03-09T17:41:54.101Z,1.40
2019-03-09T17:44:21.744Z,1.67
2019-03-09T17:46:49.340Z,1.27
2019-03-09T17:49:16.992Z,1.50
2019-03-09T17:51:44.577Z,1.47
2019-03-09T17:54:12.201Z,1.00
2019-03-09T17:56:39.793Z,1.73
2019-03-09T17:59:07.397Z,1.90
2019-03-09T18:01:35.073Z,1.33
2019-03-09T18:04:02.781Z,1.33
2019-03-09T18:06:30.399Z,1.20
2019-03-09T18:08:58.013Z,1.10
2019-03-09T18:11:25.646Z,1.13
2019-03-09T18:13:53.293Z,1.10
2019-03-09T18:16:21.417Z,1.30
2019-03-09T18:18:49.089Z,1.30
2019-03-09T18:21:16.670Z,0.80
2019-03-09T18:23:44.433Z,1.00
2019-03-09T18:26:12.091Z,0.90
2019-03-09T18:28:39.687Z,1.10
2019-03-09T18:31:07.348Z,1.00
2019-03-09T18:33:34.972Z,1.30
2019-03-09T18:36:02.633Z,1.10
2019-03-09T18:38:30.311Z,0.90
2019-03-09T18:40:57.965Z,0.90
2019-03-09T18:43:25.606Z,1.47
2019-03-09T18:45:53.253Z,0.87
2019-03-09T18:48:20.906Z,1.30
2019-03-09T18:50:48.554Z,1.53
2019-03-09T18:53:16.196Z,1.20
2019-03-09T18:55:43.859Z,1.13
2019-03-09T18:58:11.507Z,1.67
2019-03-09T19:00:39.199Z,1.20
2019-03-09T19:03:06.803Z,1.53
2019-03-09T19:05:34.445Z,1.70
2019-03-09T19:08:02.109Z,1.57
2019-03-09T19:10:29.740Z,1.23
2019-03-09T19:12:57.397Z,1.17
2019-03-09T19:15:25.059Z,1.17
2019-03-09T19:17:52.674Z,1.47
2019-03-09T19:20:20.432Z,1.37
2019-03-09T19:22:48.268Z,1.57
2019-03-09T19:25:16.105Z,1.47
2019-03-09T19:27:43.779Z,1.40
2019-03-09T19:30:13.101Z,1.60
2019-03-09T19:32:40.798Z,2.07
2019-03-09T19:35:08.676Z,1.57
2019-03-09T19:37:36.320Z,1.67
2019-03-09T19:40:04.693Z,1.13
2019-03-09T19:42:32.335Z,1.23
2019-03-09T19:44:59.963Z,1.50
2019-03-09T19:47:27.580Z,1.77
2019-03-09T19:49:55.268Z,1.40
2019-03-09T19:52:22.940Z,1.20
2019-03-09T19:54:50.569Z,1.80
2019-03-09T19:57:18.256Z,1.30
2019-03-09T19:59:46.754Z,1.60
2019-03-09T20:02:14.466Z,1.53
2019-03-09T20:04:42.121Z,1.70
2019-03-09T20:07:09.780Z,1.90
2019-03-09T20:09:37.401Z,1.40
2019-03-09T20:12:05.058Z,1.50
2019-03-09T20:14:32.711Z,1.30
2019-03-09T20:17:00.419Z,2.70
2019-03-09T20:19:28.042Z,1.63
2019-03-09T20:21:55.721Z,1.63
2019-03-09T20:24:23.374Z,1.17
2019-03-09T20:26:51.001Z,1.50
2019-03-09T20:29:18.693Z,1.63
2019-03-09T20:31:47.000Z,2.03
2019-03-09T20:34:14.735Z,1.17
2019-03-09T20:36:42.404Z,1.30
2019-03-09T20:39:10.657Z,1.60
2019-03-09T20:41:38.284Z,1.60
2019-03-09T20:44:05.892Z,1.67
2019-03-09T20:46:41.646Z,1.57
2019-03-09T20:49:03.007Z,1.73
2019-03-09T20:51:30.609Z,1.57
2019-03-09T20:53:59.222Z,1.97
2019-03-09T20:56:26.875Z,1.73
2019-03-09T20:58:54.537Z,2.30
2019-03-09T21:01:22.140Z,1.50
2019-03-09T21:03:49.810Z,1.67
2019-03-09T21:06:17.427Z,1.80
2019-03-09T21:08:45.064Z,1.40
2019-03-09T21:11:12.708Z,2.37
2019-03-09T21:13:40.384Z,1.87
2019-03-09T21:16:08.038Z,2.20
2019-03-09T21:18:35.641Z,2.20
2019-03-09T21:21:03.302Z,1.50
2019-03-09T21:23:30.962Z,1.70
2019-03-09T21:25:58.613Z,1.60
2019-03-09T21:28:26.237Z,1.70
2019-03-09T21:30:53.977Z,1.77
2019-03-09T21:33:21.698Z,1.77
2019-03-09T21:35:49.303Z,2.03
2019-03-09T21:38:17.026Z,1.73
2019-03-09T21:40:44.679Z,2.00
2019-03-09T21:43:12.319Z,1.70
2019-03-09T21:45:39.958Z,1.90
2019-03-09T21:48:07.598Z,1.50
2019-03-09T21:50:35.260Z,2.33
2019-03-09T21:53:02.885Z,1.80
2019-03-09T21:55:30.527Z,1.47
2019-03-09T21:57:58.153Z,2.00
2019-03-09T22:00:25.834Z,2.17
2019-03-09T22:02:53.478Z,2.00
2019-03-09T22:05:21.176Z,2.20
2019-03-09T22:07:48.820Z,1.83
2019-03-09T22:10:16.472Z,2.17
2019-03-09T22:12:44.114Z,2.23
2019-03-09T22:15:11.879Z,2.33
2019-03-09T22:17:39.474Z,2.27
2019-03-09T22:20:07.260Z,2.30
2019-03-09T22:22:34.883Z,2.40
2019-03-09T22:25:02.564Z,2.70
2019-03-09T22:27:30.218Z,2.40
2019-03-09T22:29:57.859Z,2.30
2019-03-09T22:32:25.458Z,2.40
2019-03-09T22:34:53.045Z,2.10
2019-03-09T22:37:20.779Z,2.03
2019-03-09T22:39:48.416Z,2.37
2019-03-09T22:42:16.081Z,2.50
2019-03-09T22:44:43.675Z,2.37
2019-03-09T22:47:12.188Z,2.93
2019-03-09T22:49:39.862Z,2.43
2019-03-09T22:52:07.517Z,3.07
2019-03-09T22:54:35.097Z,2.73
2019-03-09T22:57:02.749Z,2.50
2019-03-09T22:59:30.372Z,2.40
2019-03-09T23:01:58.064Z,2.00
2019-03-09T23:04:25.844Z,2.63
2019-03-09T23:06:53.476Z,2.43
2019-03-09T23:09:21.121Z,2.97
2019-03-09T23:11:48.760Z,2.40
2019-03-09T23:14:16.414Z,2.43
2019-03-09T23:16:44.024Z,2.73
2019-03-09T23:19:11.716Z,2.70
2019-03-09T23:21:39.347Z,2.87
2019-03-09T23:24:06.993Z,2.30
2019-03-09T23:26:34.627Z,2.77
2019-03-09T23:29:02.263Z,2.50
2019-03-09T23:31:29.927Z,2.80
2019-03-09T23:33:57.544Z,3.57
2019-03-09T23:36:25.190Z,3.30
2019-03-09T23:38:52.827Z,2.93
2019-03-09T23:41:20.428Z,2.90
2019-03-09T23:43:48.096Z,2.80
2019-03-09T23:46:15.693Z,3.37
2019-03-09T23:48:43.319Z,2.70
2019-03-09T23:51:10.977Z,2.90
2019-03-09T23:53:38.636Z,3.10
2019-03-09T23:56:06.260Z,2.87
2019-03-09T23:58:33.977Z,3.30
